createdAt,value
2022-12-22T00:00:02.835Z,43.70
2022-12-22T05:02:16.915Z,36.60
2022-12-22T05:04:45.812Z,36.30
2022-12-22T05:07:14.527Z,34.90
2022-12-22T05:09:43.766Z,36.00
2022-12-22T05:12:31.908Z,32.90
2022-12-22T05:15:00.547Z,35.70
2022-12-22T05:17:29.754Z,43.00
2022-12-22T05:19:57.944Z,42.70
2022-12-22T05:22:26.895Z,39.50
2022-12-22T05:24:57.364Z,42.50
2022-12-22T05:27:26.439Z,40.70
2022-12-22T05:29:54.591Z,40.60
2022-12-22T05:32:23.822Z,42.40
2022-12-22T05:34:52.482Z,41.30
2022-12-22T05:37:21.575Z,37.70
2022-12-22T05:39:50.575Z,44.70
2022-12-22T05:42:35.979Z,44.80
2022-12-22T05:45:09.900Z,44.30
2022-12-22T05:47:39.541Z,51.50
2022-12-22T05:50:09.902Z,70.10
2022-12-22T05:52:39.325Z,63.70
2022-12-22T05:55:11.579Z,54.90
2022-12-22T05:57:40.063Z,52.10
2022-12-22T06:00:11.877Z,53.30
2022-12-22T06:02:42.448Z,61.20
2022-12-22T06:05:15.512Z,64.00
2022-12-22T06:07:44.869Z,66.80
2022-12-22T06:10:13.821Z,77.40
2022-12-22T06:12:43.820Z,76.90
2022-12-22T06:15:14.563Z,79.70
2022-12-22T06:17:45.066Z,85.80
2022-12-22T06:20:15.275Z,84.70
2022-12-22T06:22:43.742Z,68.60
2022-12-22T06:25:17.990Z,65.10
2022-12-22T06:27:48.657Z,71.50
2022-12-22T06:30:17.745Z,71.10
2022-12-22T06:32:46.547Z,73.90
2022-12-22T06:35:15.538Z,73.00
2022-12-22T06:37:44.587Z,72.40
2022-12-22T06:40:16.565Z,60.10
2022-12-22T06:43:08.459Z,60.60
2022-12-22T06:45:41.111Z,52.10
2022-12-22T06:48:11.738Z,58.50
2022-12-22T06:50:41.073Z,58.70
2022-12-22T06:53:10.651Z,66.00
2022-12-22T06:55:40.085Z,60.60
2022-12-22T06:58:08.916Z,56.00
2022-12-22T07:00:37.987Z,41.70
2022-12-22T07:03:07.072Z,45.60
2022-12-22T07:05:36.557Z,64.30
2022-12-22T07:08:09.410Z,69.70
2022-12-22T07:10:57.352Z,61.30
2022-12-22T07:13:29.921Z,66.70
2022-12-22T07:16:01.256Z,61.50
2022-12-22T07:18:36.695Z,67.70
2022-12-22T07:21:07.379Z,57.10
2022-12-22T07:23:36.667Z,66.00
2022-12-22T07:26:06.842Z,72.70
2022-12-22T07:28:40.060Z,67.00
2022-12-22T07:31:10.937Z,67.10
2022-12-22T07:33:40.083Z,69.20
2022-12-22T07:36:11.181Z,61.70
2022-12-22T07:38:44.512Z,62.80
2022-12-22T07:41:34.644Z,66.40
2022-12-22T07:44:04.111Z,56.70
2022-12-22T07:46:35.990Z,53.20
2022-12-22T07:49:27.325Z,48.40
2022-12-22T07:52:00.434Z,51.50
2022-12-22T07:54:29.941Z,45.40
2022-12-22T07:56:59.065Z,61.70
2022-12-22T07:59:28.027Z,63.80
2022-12-22T08:01:56.900Z,61.70
2022-12-22T08:04:26.125Z,65.10
2022-12-22T08:06:55.351Z,64.00
2022-12-22T08:09:24.226Z,67.50
2022-12-22T08:11:53.038Z,84.60
2022-12-22T08:14:21.853Z,75.60
2022-12-22T08:16:50.636Z,76.40
2022-12-22T08:19:19.745Z,63.40
2022-12-22T08:21:53.014Z,75.60
2022-12-22T08:24:22.667Z,60.20
2022-12-22T08:26:56.961Z,65.00
2022-12-22T08:29:30.906Z,59.20
2022-12-22T08:32:00.755Z,63.00
2022-12-22T08:34:29.613Z,101.10
2022-12-22T08:37:01.006Z,54.80
2022-12-22T08:39:33.739Z,57.40
2022-12-22T08:42:06.227Z,46.30
2022-12-22T08:44:34.707Z,63.90
2022-12-22T08:47:03.992Z,103.10
2022-12-22T08:49:33.037Z,112.60
2022-12-22T08:52:01.777Z,63.70
2022-12-22T08:54:30.202Z,59.00
2022-12-22T08:56:59.169Z,53.40
2022-12-22T08:59:28.175Z,50.80
2022-12-22T09:01:57.940Z,47.50
2022-12-22T09:04:27.021Z,44.00
2022-12-22T09:06:56.287Z,49.90
2022-12-22T09:09:24.741Z,53.10
2022-12-22T09:11:53.539Z,46.00
2022-12-22T09:14:22.814Z,43.20
2022-12-22T09:16:51.397Z,48.00
2022-12-22T09:19:20.851Z,48.70
2022-12-22T09:21:50.187Z,40.80
2022-12-22T09:24:19.765Z,42.20
2022-12-22T09:26:49.476Z,42.90
2022-12-22T09:29:18.691Z,48.30
2022-12-22T09:31:47.669Z,50.90
2022-12-22T09:34:18.692Z,45.50
2022-12-22T09:36:48.085Z,45.20
2022-12-22T09:39:19.045Z,40.70
2022-12-22T09:41:56.301Z,44.00
2022-12-22T09:44:35.571Z,43.10
2022-12-22T09:47:15.364Z,43.00
2022-12-22T09:49:44.454Z,42.50
2022-12-22T09:52:36.484Z,45.20
2022-12-22T09:55:33.627Z,42.60
2022-12-22T09:58:03.031Z,41.70
2022-12-22T10:00:36.525Z,46.10
2022-12-22T10:03:40.187Z,36.80
2022-12-22T10:06:22.504Z,23.80
2022-12-22T10:08:55.108Z,34.80
2022-12-22T10:11:23.772Z,38.80
2022-12-22T10:13:52.812Z,39.10
2022-12-22T10:16:28.344Z,51.50
2022-12-22T10:19:16.930Z,54.20
2022-12-22T10:21:47.389Z,57.30
2022-12-22T10:24:17.766Z,60.30
2022-12-22T10:26:47.184Z,45.40
2022-12-22T10:29:18.568Z,39.00
2022-12-22T10:31:58.225Z,38.00
2022-12-22T10:34:27.248Z,35.10
2022-12-22T10:37:05.685Z,34.10
2022-12-22T10:39:36.583Z,43.50
2022-12-22T10:42:14.217Z,43.50
2022-12-22T10:44:48.155Z,30.70
2022-12-22T10:47:21.034Z,35.70
2022-12-22T10:52:33.651Z,41.20
2022-12-22T10:55:29.621Z,31.80
2022-12-22T10:58:10.776Z,40.20
2022-12-22T11:00:39.619Z,42.90
2022-12-22T11:03:20.603Z,37.80
2022-12-22T11:05:54.271Z,33.00
2022-12-22T11:08:22.386Z,31.30
2022-12-22T11:11:16.846Z,37.90
2022-12-22T11:13:58.536Z,28.40
2022-12-22T11:16:59.799Z,31.30
2022-12-22T11:19:44.379Z,27.80
2022-12-22T11:22:37.659Z,27.10
2022-12-22T11:25:21.773Z,31.50
2022-12-22T11:28:36.352Z,34.70
2022-12-22T11:31:18.839Z,29.90
2022-12-22T11:34:21.887Z,27.00
2022-12-22T11:36:51.124Z,32.70
2022-12-22T11:39:57.427Z,33.60
2022-12-22T11:42:55.252Z,37.70
2022-12-22T11:45:46.331Z,41.20
2022-12-22T11:48:26.987Z,36.10
2022-12-22T11:51:15.227Z,36.60
2022-12-22T11:54:22.144Z,38.10
2022-12-22T11:57:27.459Z,34.40
2022-12-22T12:00:18.414Z,43.60
2022-12-22T12:02:49.872Z,44.00
2022-12-22T12:05:38.702Z,43.40
2022-12-22T12:08:40.327Z,41.60
2022-12-22T12:11:34.622Z,46.40
2022-12-22T12:14:24.158Z,34.80
2022-12-22T12:17:17.260Z,34.70
2022-12-22T12:19:58.754Z,40.70
2022-12-22T12:22:56.106Z,34.60
2022-12-22T12:25:52.921Z,35.10
2022-12-22T12:29:15.647Z,40.30
2022-12-22T12:32:01.057Z,46.60
2022-12-22T12:34:37.949Z,48.90
2022-12-22T12:37:24.337Z,33.00
2022-12-22T12:40:00.629Z,33.70
2022-12-22T12:42:37.499Z,37.80
2022-12-22T12:45:52.202Z,66.90
2022-12-22T12:50:49.500Z,46.90
2022-12-22T12:53:20.085Z,47.90
2022-12-22T12:55:48.416Z,45.40
2022-12-22T12:58:38.485Z,40.00
2022-12-22T13:01:11.254Z,45.10
2022-12-22T13:06:49.741Z,34.50
2022-12-22T13:12:48.752Z,47.50
2022-12-22T13:15:31.290Z,104.80
2022-12-22T13:18:01.852Z,54.50
2022-12-22T13:20:36.044Z,65.20
2022-12-22T13:23:12.502Z,66.80
2022-12-22T13:25:59.010Z,61.00
2022-12-22T13:28:28.596Z,37.70
2022-12-22T13:31:01.357Z,45.10
2022-12-22T13:33:32.469Z,91.50
2022-12-22T13:36:01.640Z,47.40
2022-12-22T13:38:36.546Z,71.70
2022-12-22T13:41:24.772Z,39.10
2022-12-22T13:44:06.687Z,43.20
2022-12-22T13:46:39.082Z,48.60
2022-12-22T13:49:13.681Z,47.90
2022-12-22T13:51:48.852Z,41.10
2022-12-22T13:54:23.473Z,51.00
2022-12-22T13:56:54.988Z,70.00
2022-12-22T13:59:32.164Z,47.00
2022-12-22T14:02:15.920Z,56.50
2022-12-22T14:05:03.808Z,55.80
2022-12-22T14:07:32.474Z,47.30
2022-12-22T14:10:01.334Z,53.40
2022-12-22T14:12:32.762Z,48.00
2022-12-22T14:15:03.338Z,52.80
2022-12-22T14:17:35.015Z,56.70
2022-12-22T14:20:17.793Z,42.00
2022-12-22T14:22:53.331Z,47.20
2022-12-22T14:25:40.612Z,57.00
2022-12-22T14:28:35.920Z,47.80
2022-12-22T14:31:07.766Z,57.90
2022-12-22T14:33:39.183Z,62.70
2022-12-22T14:36:22.996Z,94.70
2022-12-22T14:41:43.487Z,75.30
2022-12-22T14:44:38.112Z,71.10
2022-12-22T14:47:15.493Z,63.40
2022-12-22T14:49:58.972Z,93.80
2022-12-22T14:52:44.784Z,76.90
2022-12-22T14:55:26.124Z,53.50
2022-12-22T14:58:29.118Z,61.70
2022-12-22T15:01:23.861Z,59.10
2022-12-22T15:04:18.755Z,65.50
2022-12-22T15:06:49.139Z,64.20
2022-12-22T15:09:33.322Z,62.70
2022-12-22T15:12:12.889Z,67.30
2022-12-22T15:14:42.465Z,55.20
2022-12-22T15:17:21.769Z,53.80
2022-12-22T15:19:52.360Z,50.40
2022-12-22T15:22:21.235Z,40.70
2022-12-22T15:24:49.262Z,40.30
2022-12-22T15:27:18.503Z,43.00
2022-12-22T15:29:47.820Z,36.20
2022-12-22T15:32:16.314Z,32.10
2022-12-22T15:34:47.802Z,36.90
2022-12-22T15:37:16.256Z,39.00
2022-12-22T15:39:44.825Z,36.60
2022-12-22T15:42:13.884Z,43.00
2022-12-22T15:44:42.956Z,35.00
2022-12-22T15:47:12.709Z,35.80
2022-12-22T15:49:42.093Z,50.30
2022-12-22T15:52:13.774Z,55.80
2022-12-22T15:54:42.951Z,44.30
2022-12-22T15:57:14.642Z,43.80
2022-12-22T15:59:43.255Z,40.90
2022-12-22T16:02:13.911Z,42.50
2022-12-22T16:04:43.331Z,38.20
2022-12-22T16:07:12.752Z,34.50
2022-12-22T16:09:44.389Z,30.30
2022-12-22T16:12:14.807Z,33.10
2022-12-22T16:14:50.570Z,32.30
2022-12-22T16:17:23.188Z,33.00
2022-12-22T16:19:52.414Z,36.30
2022-12-22T16:22:32.609Z,42.20
2022-12-22T16:25:07.732Z,53.90
2022-12-22T16:27:36.613Z,53.40
2022-12-22T16:30:06.653Z,49.50
2022-12-22T16:32:35.974Z,53.10
2022-12-22T16:35:17.524Z,46.60
2022-12-22T16:37:46.526Z,41.40
2022-12-22T16:40:18.364Z,43.30
2022-12-22T16:45:59.078Z,56.70
2022-12-22T16:48:55.811Z,50.80
2022-12-22T16:51:34.565Z,44.40
2022-12-22T16:54:03.884Z,36.80
2022-12-22T16:56:33.866Z,33.70
2022-12-22T16:59:05.075Z,39.20
2022-12-22T17:01:41.988Z,32.50
2022-12-22T17:04:19.099Z,34.90
2022-12-22T17:06:50.325Z,33.50
2022-12-22T17:09:23.539Z,34.30
2022-12-22T17:11:54.233Z,32.90
2022-12-22T17:14:37.506Z,29.70
2022-12-22T17:17:07.530Z,29.40
2022-12-22T17:19:36.309Z,31.60
2022-12-22T17:22:05.428Z,30.40
2022-12-22T17:24:33.979Z,33.50
2022-12-22T17:27:06.324Z,35.20
2022-12-22T17:29:35.328Z,35.30
2022-12-22T17:32:03.739Z,32.30
2022-12-22T17:34:32.220Z,31.50
2022-12-22T17:37:00.515Z,31.40
2022-12-22T17:39:28.844Z,35.30
2022-12-22T17:41:57.752Z,32.60
2022-12-22T17:44:27.526Z,35.50
2022-12-22T17:46:56.869Z,37.00
2022-12-22T17:49:25.357Z,39.90
2022-12-22T17:51:54.489Z,36.30
2022-12-22T17:54:26.245Z,33.40
2022-12-22T17:57:02.448Z,31.60
2022-12-22T17:59:32.255Z,33.90
2022-12-22T18:02:02.030Z,35.50
2022-12-22T18:04:30.885Z,33.50
2022-12-22T18:06:59.166Z,36.10
2022-12-22T18:09:27.387Z,48.00
2022-12-22T18:11:55.606Z,44.00
2022-12-22T18:14:23.811Z,33.10
2022-12-22T18:16:52.014Z,30.00
2022-12-22T18:19:20.344Z,32.10
2022-12-22T18:21:48.816Z,39.70
2022-12-22T18:24:19.416Z,40.40
2022-12-22T18:26:47.991Z,35.00
2022-12-22T18:29:17.779Z,39.00
2022-12-22T18:31:45.946Z,43.20
2022-12-22T18:34:14.249Z,57.30
2022-12-22T18:36:42.640Z,42.10
2022-12-22T18:39:19.167Z,41.90
2022-12-22T18:41:48.123Z,39.80
2022-12-22T18:44:18.095Z,35.00
2022-12-22T18:46:48.103Z,39.10
2022-12-22T18:49:17.599Z,39.40
2022-12-22T18:51:46.150Z,38.40
2022-12-22T18:54:31.832Z,33.60
2022-12-22T18:57:00.735Z,34.70
2022-12-22T18:59:29.816Z,32.40
2022-12-22T19:02:07.110Z,31.50
2022-12-22T19:04:36.097Z,38.60
2022-12-22T19:07:04.114Z,39.30
2022-12-22T19:09:32.368Z,45.40
2022-12-22T19:12:01.398Z,63.70
2022-12-22T19:14:29.750Z,70.00
2022-12-22T19:16:58.071Z,47.60
2022-12-22T19:19:26.940Z,43.00
2022-12-22T19:21:55.496Z,60.10
2022-12-22T19:24:24.554Z,56.10
2022-12-22T19:26:52.983Z,44.80
2022-12-22T19:29:21.389Z,36.70
2022-12-22T19:31:50.166Z,38.70
2022-12-22T19:34:21.331Z,35.90
2022-12-22T19:36:50.090Z,43.20
2022-12-22T19:39:18.272Z,54.40
2022-12-22T19:41:48.168Z,48.20
2022-12-22T19:44:23.624Z,45.00
2022-12-22T19:46:53.418Z,45.30
2022-12-22T19:49:30.185Z,61.80
2022-12-22T19:51:58.531Z,121.80
2022-12-22T19:54:28.563Z,118.80
2022-12-22T19:56:57.523Z,110.60
2022-12-22T19:59:38.589Z,97.00
2022-12-22T20:02:32.170Z,74.80
2022-12-22T20:05:01.209Z,49.10
2022-12-22T20:07:33.516Z,48.90
2022-12-22T20:10:02.436Z,50.30
2022-12-22T20:12:38.230Z,49.00
2022-12-22T20:15:14.985Z,44.30
2022-12-22T20:17:43.118Z,35.90
2022-12-22T20:20:20.760Z,37.40
2022-12-22T20:22:57.717Z,37.00
2022-12-22T20:25:28.588Z,37.50
2022-12-22T20:27:57.581Z,34.30
2022-12-22T20:30:30.897Z,37.30
2022-12-22T20:33:00.052Z,35.30
2022-12-22T20:35:28.679Z,39.40
2022-12-22T20:38:01.366Z,40.00
2022-12-22T20:40:34.235Z,69.60
2022-12-22T20:43:03.290Z,87.00
2022-12-22T20:45:32.516Z,55.90
2022-12-22T20:48:01.381Z,50.90
2022-12-22T20:50:34.041Z,55.00
2022-12-22T20:53:03.131Z,46.90
2022-12-22T20:55:31.138Z,45.60
2022-12-22T20:58:01.248Z,43.50
2022-12-22T21:00:29.551Z,41.60
2022-12-22T21:02:58.361Z,41.30
2022-12-22T21:05:27.396Z,42.10
2022-12-22T21:07:57.100Z,36.10
2022-12-22T21:10:28.604Z,34.00
2022-12-22T21:12:56.750Z,29.50
2022-12-22T21:15:28.622Z,30.00
2022-12-22T21:17:58.818Z,33.50
2022-12-22T21:20:31.673Z,37.60
2022-12-22T21:22:59.795Z,36.50
2022-12-22T21:25:28.416Z,37.40
2022-12-22T21:27:57.409Z,32.80
2022-12-22T21:30:29.177Z,27.60
2022-12-22T21:32:57.723Z,26.40
2022-12-22T21:35:36.655Z,27.10
2022-12-22T21:38:05.380Z,27.00
2022-12-22T21:40:33.659Z,31.00
2022-12-22T21:43:02.458Z,42.20
2022-12-22T21:45:33.931Z,52.70
2022-12-22T21:48:06.437Z,81.90
2022-12-22T21:50:35.995Z,68.30
2022-12-22T21:53:04.794Z,66.80
2022-12-22T21:55:36.189Z,45.40
2022-12-22T21:58:06.745Z,158.50
2022-12-22T22:00:35.538Z,104.30
2022-12-22T22:03:05.608Z,59.80
2022-12-22T22:05:39.572Z,51.50
2022-12-22T22:08:10.175Z,55.80
2022-12-22T22:10:41.437Z,67.70
2022-12-22T22:13:14.749Z,50.60
2022-12-22T22:15:43.829Z,70.70
2022-12-22T22:18:21.795Z,62.10
2022-12-22T22:20:51.410Z,77.70
2022-12-22T22:23:19.687Z,52.60
2022-12-22T22:25:48.180Z,48.50
2022-12-22T22:28:16.401Z,52.20
2022-12-22T22:30:44.887Z,44.10
2022-12-22T22:33:13.263Z,36.10
2022-12-22T22:35:41.988Z,32.60
2022-12-22T22:38:15.152Z,27.60
2022-12-22T22:40:45.333Z,28.80
2022-12-22T22:43:14.837Z,23.60
2022-12-22T22:45:43.437Z,21.80
2022-12-22T22:48:20.458Z,22.00
2022-12-22T22:50:50.029Z,20.00
2022-12-22T22:53:19.053Z,20.70
2022-12-22T22:55:47.116Z,20.70
2022-12-22T22:58:15.944Z,22.20
2022-12-22T23:00:44.407Z,23.50
2022-12-22T23:03:13.364Z,23.70
2022-12-22T23:05:42.349Z,24.00
2022-12-22T23:08:10.546Z,25.40
2022-12-22T23:10:41.950Z,26.40
2022-12-22T23:13:10.638Z,28.60
2022-12-22T23:15:39.046Z,26.60
2022-12-22T23:18:07.266Z,25.00
2022-12-22T23:20:35.399Z,25.10
2022-12-22T23:23:03.780Z,23.90
2022-12-22T23:25:32.882Z,25.70
2022-12-22T23:28:01.083Z,26.10
2022-12-22T23:30:29.413Z,31.80
2022-12-22T23:32:58.416Z,28.30
2022-12-22T23:35:26.692Z,27.70
2022-12-22T23:37:55.516Z,27.40
2022-12-22T23:40:54.830Z,27.80
2022-12-22T23:43:14.180Z,22.80
2022-12-22T23:45:42.778Z,23.40
2022-12-22T23:48:10.897Z,24.20
2022-12-22T23:50:39.126Z,26.90
2022-12-22T23:53:08.224Z,24.50
2022-12-22T23:55:36.373Z,21.20
2022-12-22T23:58:05.322Z,20.60
